sensor_id;sensor_type;location;lat;lon;timestamp;P1;durP1;ratioP1;P2;durP2;ratioP2
10191;SDS011;17580;50.850;4.504;2022-07-12T00:02:06;2.43;;;1.77;;
10191;SDS011;17580;50.850;4.504;2022-07-12T00:04:33;1.80;;;1.70;;
10191;SDS011;17580;50.850;4.504;2022-07-12T00:07:02;2.30;;;2.10;;
10191;SDS011;17580;50.850;4.504;2022-07-12T00:09:29;1.93;;;1.83;;
10191;SDS011;17580;50.850;4.504;2022-07-12T00:11:56;1.70;;;1.70;;
10191;SDS011;17580;50.850;4.504;2022-07-12T00:14:23;2.00;;;1.90;;
10191;SDS011;17580;50.850;4.504;2022-07-12T00:16:50;2.50;;;2.30;;
10191;SDS011;17580;50.850;4.504;2022-07-12T00:19:17;2.13;;;1.90;;
10191;SDS011;17580;50.850;4.504;2022-07-12T00:21:45;1.87;;;1.80;;
10191;SDS011;17580;50.850;4.504;2022-07-12T00:24:13;1.70;;;1.60;;
10191;SDS011;17580;50.850;4.504;2022-07-12T00:26:40;2.03;;;1.93;;
10191;SDS011;17580;50.850;4.504;2022-07-12T00:29:07;2.03;;;1.93;;
10191;SDS011;17580;50.850;4.504;2022-07-12T00:31:34;1.90;;;1.87;;
10191;SDS011;17580;50.850;4.504;2022-07-12T00:34:01;1.90;;;1.80;;
10191;SDS011;17580;50.850;4.504;2022-07-12T00:36:28;2.10;;;2.03;;
10191;SDS011;17580;50.850;4.504;2022-07-12T00:38:55;1.83;;;1.80;;
10191;SDS011;17580;50.850;4.504;2022-07-12T00:41:23;2.20;;;2.00;;
10191;SDS011;17580;50.850;4.504;2022-07-12T00:43:50;2.20;;;1.70;;
10191;SDS011;17580;50.850;4.504;2022-07-12T00:46:18;1.97;;;1.87;;
10191;SDS011;17580;50.850;4.504;2022-07-12T00:48:48;2.10;;;2.00;;
10191;SDS011;17580;50.850;4.504;2022-07-12T00:51:16;1.87;;;1.77;;
10191;SDS011;17580;50.850;4.504;2022-07-12T00:53:43;1.90;;;1.80;;
10191;SDS011;17580;50.850;4.504;2022-07-12T00:56:11;2.30;;;2.00;;
10191;SDS011;17580;50.850;4.504;2022-07-12T00:58:40;2.30;;;1.77;;
10191;SDS011;17580;50.850;4.504;2022-07-12T01:01:08;1.67;;;1.63;;
10191;SDS011;17580;50.850;4.504;2022-07-12T01:03:35;1.90;;;1.90;;
10191;SDS011;17580;50.850;4.504;2022-07-12T01:06:03;2.00;;;1.90;;
10191;SDS011;17580;50.850;4.504;2022-07-12T01:08:31;1.87;;;1.60;;
10191;SDS011;17580;50.850;4.504;2022-07-12T01:11:00;1.93;;;1.83;;
10191;SDS011;17580;50.850;4.504;2022-07-12T01:13:27;2.10;;;2.00;;
10191;SDS011;17580;50.850;4.504;2022-07-12T01:15:56;1.97;;;1.97;;
10191;SDS011;17580;50.850;4.504;2022-07-12T01:18:23;1.90;;;1.87;;
10191;SDS011;17580;50.850;4.504;2022-07-12T01:20:52;2.20;;;2.10;;
10191;SDS011;17580;50.850;4.504;2022-07-12T01:23:21;1.47;;;1.47;;
10191;SDS011;17580;50.850;4.504;2022-07-12T01:25:48;1.90;;;1.90;;
10191;SDS011;17580;50.850;4.504;2022-07-12T01:28:16;1.97;;;1.80;;
10191;SDS011;17580;50.850;4.504;2022-07-12T01:30:43;1.80;;;1.77;;
10191;SDS011;17580;50.850;4.504;2022-07-12T01:33:10;2.23;;;2.13;;
10191;SDS011;17580;50.850;4.504;2022-07-12T01:35:37;1.80;;;1.70;;
10191;SDS011;17580;50.850;4.504;2022-07-12T01:38:04;2.20;;;2.10;;
10191;SDS011;17580;50.850;4.504;2022-07-12T01:40:33;1.70;;;1.60;;
10191;SDS011;17580;50.850;4.504;2022-07-12T01:43:01;2.30;;;2.20;;
10191;SDS011;17580;50.850;4.504;2022-07-12T01:45:29;1.80;;;1.70;;
10191;SDS011;17580;50.850;4.504;2022-07-12T01:47:56;1.77;;;1.67;;
10191;SDS011;17580;50.850;4.504;2022-07-12T01:50:24;1.60;;;1.60;;
10191;SDS011;17580;50.850;4.504;2022-07-12T01:52:51;2.10;;;2.00;;
10191;SDS011;17580;50.850;4.504;2022-07-12T01:55:19;1.80;;;1.70;;
10191;SDS011;17580;50.850;4.504;2022-07-12T01:57:48;2.70;;;2.00;;
10191;SDS011;17580;50.850;4.504;2022-07-12T02:00:15;2.07;;;2.07;;
10191;SDS011;17580;50.850;4.504;2022-07-12T02:02:45;2.17;;;2.07;;
10191;SDS011;17580;50.850;4.504;2022-07-12T02:05:12;1.97;;;1.87;;
10191;SDS011;17580;50.850;4.504;2022-07-12T02:07:39;1.87;;;1.80;;
10191;SDS011;17580;50.850;4.504;2022-07-12T02:10:06;1.83;;;1.80;;
10191;SDS011;17580;50.850;4.504;2022-07-12T02:12:34;2.00;;;1.90;;
10191;SDS011;17580;50.850;4.504;2022-07-12T02:15:03;2.10;;;2.07;;
10191;SDS011;17580;50.850;4.504;2022-07-12T02:17:31;2.70;;;2.33;;
10191;SDS011;17580;50.850;4.504;2022-07-12T02:19:58;2.20;;;2.03;;
10191;SDS011;17580;50.850;4.504;2022-07-12T02:22:25;2.40;;;2.20;;
10191;SDS011;17580;50.850;4.504;2022-07-12T02:24:52;2.10;;;2.00;;
10191;SDS011;17580;50.850;4.504;2022-07-12T02:27:19;2.30;;;2.20;;
10191;SDS011;17580;50.850;4.504;2022-07-12T02:29:46;2.40;;;2.30;;
10191;SDS011;17580;50.850;4.504;2022-07-12T02:32:14;2.07;;;1.97;;
10191;SDS011;17580;50.850;4.504;2022-07-12T02:34:41;2.30;;;2.20;;
10191;SDS011;17580;50.850;4.504;2022-07-12T02:37:08;2.17;;;2.07;;
10191;SDS011;17580;50.850;4.504;2022-07-12T02:39:35;2.33;;;2.23;;
10191;SDS011;17580;50.850;4.504;2022-07-12T02:42:02;2.60;;;2.43;;
10191;SDS011;17580;50.850;4.504;2022-07-12T02:44:30;2.57;;;2.47;;
10191;SDS011;17580;50.850;4.504;2022-07-12T02:46:57;3.03;;;2.50;;
10191;SDS011;17580;50.850;4.504;2022-07-12T02:49:26;2.53;;;2.43;;
10191;SDS011;17580;50.850;4.504;2022-07-12T02:51:53;2.80;;;2.70;;
10191;SDS011;17580;50.850;4.504;2022-07-12T02:54:20;3.20;;;3.00;;
10191;SDS011;17580;50.850;4.504;2022-07-12T02:56:47;3.37;;;3.17;;
10191;SDS011;17580;50.850;4.504;2022-07-12T02:59:14;3.30;;;3.10;;
10191;SDS011;17580;50.850;4.504;2022-07-12T03:01:41;2.90;;;2.70;;
10191;SDS011;17580;50.850;4.504;2022-07-12T03:04:08;3.17;;;2.97;;
10191;SDS011;17580;50.850;4.504;2022-07-12T03:06:36;3.40;;;3.20;;
10191;SDS011;17580;50.850;4.504;2022-07-12T03:09:03;3.10;;;2.90;;
10191;SDS011;17580;50.850;4.504;2022-07-12T03:11:30;2.43;;;2.33;;
10191;SDS011;17580;50.850;4.504;2022-07-12T03:13:57;2.70;;;2.60;;
10191;SDS011;17580;50.850;4.504;2022-07-12T03:16:24;3.47;;;3.17;;
10191;SDS011;17580;50.850;4.504;2022-07-12T03:18:51;2.93;;;2.83;;
10191;SDS011;17580;50.850;4.504;2022-07-12T03:21:18;2.70;;;2.60;;
10191;SDS011;17580;50.850;4.504;2022-07-12T03:23:46;4.30;;;3.10;;
10191;SDS011;17580;50.850;4.504;2022-07-12T03:26:14;3.23;;;3.03;;
10191;SDS011;17580;50.850;4.504;2022-07-12T03:28:41;3.07;;;2.97;;
10191;SDS011;17580;50.850;4.504;2022-07-12T03:31:08;3.50;;;3.27;;
10191;SDS011;17580;50.850;4.504;2022-07-12T03:33:35;3.17;;;3.03;;
10191;SDS011;17580;50.850;4.504;2022-07-12T03:36:02;3.30;;;3.10;;
10191;SDS011;17580;50.850;4.504;2022-07-12T03:38:31;3.00;;;2.80;;
10191;SDS011;17580;50.850;4.504;2022-07-12T03:41:00;2.90;;;2.70;;
10191;SDS011;17580;50.850;4.504;2022-07-12T03:43:27;3.13;;;2.93;;
10191;SDS011;17580;50.850;4.504;2022-07-12T03:45:54;3.13;;;3.00;;
10191;SDS011;17580;50.850;4.504;2022-07-12T03:48:21;3.07;;;2.87;;
10191;SDS011;17580;50.850;4.504;2022-07-12T03:50:48;2.50;;;2.40;;
10191;SDS011;17580;50.850;4.504;2022-07-12T03:53:15;2.70;;;2.60;;
10191;SDS011;17580;50.850;4.504;2022-07-12T03:55:42;4.33;;;2.97;;
10191;SDS011;17580;50.850;4.504;2022-07-12T03:58:11;3.00;;;2.80;;
10191;SDS011;17580;50.850;4.504;2022-07-12T04:00:38;3.63;;;3.33;;
10191;SDS011;17580;50.850;4.504;2022-07-12T04:03:07;3.30;;;3.10;;
10191;SDS011;17580;50.850;4.504;2022-07-12T04:05:35;2.70;;;2.60;;
10191;SDS011;17580;50.850;4.504;2022-07-12T04:08:02;2.83;;;2.70;;
10191;SDS011;17580;50.850;4.504;2022-07-12T04:10:30;2.67;;;2.47;;
10191;SDS011;17580;50.850;4.504;2022-07-12T04:12:57;3.00;;;2.80;;
10191;SDS011;17580;50.850;4.504;2022-07-12T04:15:25;3.20;;;3.00;;
10191;SDS011;17580;50.850;4.504;2022-07-12T04:17:52;3.07;;;2.87;;
10191;SDS011;17580;50.850;4.504;2022-07-12T04:20:19;2.83;;;2.73;;
10191;SDS011;17580;50.850;4.504;2022-07-12T04:22:46;4.67;;;3.10;;
10191;SDS011;17580;50.850;4.504;2022-07-12T04:25:13;4.77;;;2.90;;
10191;SDS011;17580;50.850;4.504;2022-07-12T04:27:40;2.87;;;2.77;;
10191;SDS011;17580;50.850;4.504;2022-07-12T04:30:07;2.83;;;2.70;;
10191;SDS011;17580;50.850;4.504;2022-07-12T04:32:36;3.20;;;3.00;;
10191;SDS011;17580;50.850;4.504;2022-07-12T04:35:06;3.20;;;3.00;;
10191;SDS011;17580;50.850;4.504;2022-07-12T04:37:33;3.00;;;2.90;;
10191;SDS011;17580;50.850;4.504;2022-07-12T04:40:00;3.20;;;3.00;;
10191;SDS011;17580;50.850;4.504;2022-07-12T04:42:27;3.40;;;3.10;;
10191;SDS011;17580;50.850;4.504;2022-07-12T04:44:54;3.20;;;2.90;;
10191;SDS011;17580;50.850;4.504;2022-07-12T04:47:21;4.17;;;3.37;;
10191;SDS011;17580;50.850;4.504;2022-07-12T04:49:49;3.03;;;2.93;;
10191;SDS011;17580;50.850;4.504;2022-07-12T04:52:16;3.33;;;3.13;;
10191;SDS011;17580;50.850;4.504;2022-07-12T04:54:43;3.47;;;3.17;;
10191;SDS011;17580;50.850;4.504;2022-07-12T04:57:10;3.83;;;3.60;;
10191;SDS011;17580;50.850;4.504;2022-07-12T04:59:37;3.33;;;3.17;;
10191;SDS011;17580;50.850;4.504;2022-07-12T05:02:04;3.70;;;3.40;;
10191;SDS011;17580;50.850;4.504;2022-07-12T05:04:31;4.72;;;4.32;;
10191;SDS011;17580;50.850;4.504;2022-07-12T05:07:00;3.03;;;2.93;;
10191;SDS011;17580;50.850;4.504;2022-07-12T05:09:27;3.70;;;3.43;;
10191;SDS011;17580;50.850;4.504;2022-07-12T05:11:54;4.67;;;4.27;;
10191;SDS011;17580;50.850;4.504;2022-07-12T05:14:21;3.20;;;3.00;;
10191;SDS011;17580;50.850;4.504;2022-07-12T05:16:47;9.70;;;3.80;;
10191;SDS011;17580;50.850;4.504;2022-07-12T05:19:14;3.17;;;2.97;;
10191;SDS011;17580;50.850;4.504;2022-07-12T05:21:42;3.20;;;2.87;;
10191;SDS011;17580;50.850;4.504;2022-07-12T05:24:10;2.93;;;2.67;;
10191;SDS011;17580;50.850;4.504;2022-07-12T05:26:37;2.90;;;2.70;;
10191;SDS011;17580;50.850;4.504;2022-07-12T05:29:04;3.50;;;3.30;;
10191;SDS011;17580;50.850;4.504;2022-07-12T05:31:31;4.10;;;3.80;;
10191;SDS011;17580;50.850;4.504;2022-07-12T05:33:58;4.10;;;3.80;;
10191;SDS011;17580;50.850;4.504;2022-07-12T05:36:25;3.13;;;2.93;;
10191;SDS011;17580;50.850;4.504;2022-07-12T05:38:52;4.03;;;3.73;;
10191;SDS011;17580;50.850;4.504;2022-07-12T05:41:20;3.70;;;3.53;;
10191;SDS011;17580;50.850;4.504;2022-07-12T05:43:47;3.57;;;3.37;;
10191;SDS011;17580;50.850;4.504;2022-07-12T05:46:14;3.60;;;3.30;;
10191;SDS011;17580;50.850;4.504;2022-07-12T05:48:41;3.50;;;3.30;;
10191;SDS011;17580;50.850;4.504;2022-07-12T05:51:08;5.87;;;3.40;;
10191;SDS011;17580;50.850;4.504;2022-07-12T05:53:52;4.37;;;3.83;;
10191;SDS011;17580;50.850;4.504;2022-07-12T05:56:21;4.30;;;4.00;;
10191;SDS011;17580;50.850;4.504;2022-07-12T05:58:48;5.07;;;3.97;;
10191;SDS011;17580;50.850;4.504;2022-07-12T06:01:15;3.97;;;3.67;;
10191;SDS011;17580;50.850;4.504;2022-07-12T06:03:43;4.70;;;4.37;;
10191;SDS011;17580;50.850;4.504;2022-07-12T06:06:10;5.07;;;4.77;;
10191;SDS011;17580;50.850;4.504;2022-07-12T06:08:37;4.40;;;4.10;;
10191;SDS011;17580;50.850;4.504;2022-07-12T06:11:04;4.00;;;3.80;;
10191;SDS011;17580;50.850;4.504;2022-07-12T06:13:32;4.70;;;4.40;;
10191;SDS011;17580;50.850;4.504;2022-07-12T06:15:59;5.33;;;4.77;;
10191;SDS011;17580;50.850;4.504;2022-07-12T06:18:26;5.77;;;4.37;;
10191;SDS011;17580;50.850;4.504;2022-07-12T06:20:53;5.27;;;4.90;;
10191;SDS011;17580;50.850;4.504;2022-07-12T06:23:20;5.37;;;5.07;;
10191;SDS011;17580;50.850;4.504;2022-07-12T06:25:47;5.40;;;4.90;;
10191;SDS011;17580;50.850;4.504;2022-07-12T06:28:14;5.23;;;4.93;;
10191;SDS011;17580;50.850;4.504;2022-07-12T06:30:42;5.03;;;4.73;;
10191;SDS011;17580;50.850;4.504;2022-07-12T06:33:09;6.47;;;5.87;;
10191;SDS011;17580;50.850;4.504;2022-07-12T06:35:36;7.20;;;6.60;;
10191;SDS011;17580;50.850;4.504;2022-07-12T06:38:03;5.77;;;5.37;;
10191;SDS011;17580;50.850;4.504;2022-07-12T06:40:30;6.03;;;5.63;;
10191;SDS011;17580;50.850;4.504;2022-07-12T06:42:57;5.97;;;5.57;;
10191;SDS011;17580;50.850;4.504;2022-07-12T06:45:24;7.97;;;7.37;;
10191;SDS011;17580;50.850;4.504;2022-07-12T06:47:53;6.63;;;6.13;;
10191;SDS011;17580;50.850;4.504;2022-07-12T06:50:20;5.77;;;5.37;;
10191;SDS011;17580;50.850;4.504;2022-07-12T06:52:47;6.47;;;5.97;;
10191;SDS011;17580;50.850;4.504;2022-07-12T06:55:14;5.00;;;4.70;;
10191;SDS011;17580;50.850;4.504;2022-07-12T06:57:41;5.30;;;4.90;;
10191;SDS011;17580;50.850;4.504;2022-07-12T07:00:08;5.20;;;4.80;;
10191;SDS011;17580;50.850;4.504;2022-07-12T07:02:35;5.80;;;5.30;;
10191;SDS011;17580;50.850;4.504;2022-07-12T07:05:05;6.20;;;5.80;;
10191;SDS011;17580;50.850;4.504;2022-07-12T07:07:33;5.90;;;5.50;;
10191;SDS011;17580;50.850;4.504;2022-07-12T07:09:59;5.90;;;5.50;;
10191;SDS011;17580;50.850;4.504;2022-07-12T07:12:26;6.70;;;5.97;;
10191;SDS011;17580;50.850;4.504;2022-07-12T07:14:53;5.00;;;4.70;;
10191;SDS011;17580;50.850;4.504;2022-07-12T07:17:20;7.03;;;5.77;;
10191;SDS011;17580;50.850;4.504;2022-07-12T07:19:47;6.33;;;5.93;;
10191;SDS011;17580;50.850;4.504;2022-07-12T07:22:16;6.10;;;5.60;;
10191;SDS011;17580;50.850;4.504;2022-07-12T07:24:43;5.80;;;5.40;;
10191;SDS011;17580;50.850;4.504;2022-07-12T07:27:11;6.17;;;5.67;;
10191;SDS011;17580;50.850;4.504;2022-07-12T07:29:38;6.10;;;5.70;;
10191;SDS011;17580;50.850;4.504;2022-07-12T07:32:37;5.73;;;5.33;;
10191;SDS011;17580;50.850;4.504;2022-07-12T07:35:04;5.40;;;5.00;;
10191;SDS011;17580;50.850;4.504;2022-07-12T07:37:33;5.33;;;4.93;;
10191;SDS011;17580;50.850;4.504;2022-07-12T07:40:00;6.07;;;5.60;;
10191;SDS011;17580;50.850;4.504;2022-07-12T07:42:28;5.73;;;5.33;;
10191;SDS011;17580;50.850;4.504;2022-07-12T07:44:54;4.93;;;4.60;;
10191;SDS011;17580;50.850;4.504;2022-07-12T07:47:21;5.17;;;4.83;;
10191;SDS011;17580;50.850;4.504;2022-07-12T07:49:48;4.87;;;4.50;;
10191;SDS011;17580;50.850;4.504;2022-07-12T07:52:15;4.83;;;4.53;;
10191;SDS011;17580;50.850;4.504;2022-07-12T07:54:44;5.27;;;4.90;;
10191;SDS011;17580;50.850;4.504;2022-07-12T07:57:11;4.90;;;4.60;;
10191;SDS011;17580;50.850;4.504;2022-07-12T07:59:37;5.17;;;4.80;;
10191;SDS011;17580;50.850;4.504;2022-07-12T08:02:04;5.57;;;5.13;;
10191;SDS011;17580;50.850;4.504;2022-07-12T08:04:31;5.60;;;5.10;;
10191;SDS011;17580;50.850;4.504;2022-07-12T08:06:58;5.03;;;4.73;;
10191;SDS011;17580;50.850;4.504;2022-07-12T08:09:25;5.33;;;4.93;;
10191;SDS011;17580;50.850;4.504;2022-07-12T08:11:53;5.30;;;4.80;;
10191;SDS011;17580;50.850;4.504;2022-07-12T08:14:20;4.47;;;4.13;;
10191;SDS011;17580;50.850;4.504;2022-07-12T08:16:47;4.00;;;3.80;;
10191;SDS011;17580;50.850;4.504;2022-07-12T08:19:14;5.07;;;4.57;;
10191;SDS011;17580;50.850;4.504;2022-07-12T08:21:41;4.57;;;4.27;;
10191;SDS011;17580;50.850;4.504;2022-07-12T08:24:08;4.50;;;4.20;;
10191;SDS011;17580;50.850;4.504;2022-07-12T08:26:35;5.07;;;4.77;;
10191;SDS011;17580;50.850;4.504;2022-07-12T08:29:03;4.27;;;3.93;;
10191;SDS011;17580;50.850;4.504;2022-07-12T08:31:30;4.80;;;4.40;;
10191;SDS011;17580;50.850;4.504;2022-07-12T08:33:57;4.53;;;4.23;;
10191;SDS011;17580;50.850;4.504;2022-07-12T08:36:24;5.00;;;4.70;;
10191;SDS011;17580;50.850;4.504;2022-07-12T08:38:51;4.70;;;4.43;;
10191;SDS011;17580;50.850;4.504;2022-07-12T08:41:18;4.63;;;4.33;;
10191;SDS011;17580;50.850;4.504;2022-07-12T08:43:45;4.30;;;4.03;;
10191;SDS011;17580;50.850;4.504;2022-07-12T08:46:14;4.73;;;4.43;;
10191;SDS011;17580;50.850;4.504;2022-07-12T08:48:42;4.30;;;3.90;;
10191;SDS011;17580;50.850;4.504;2022-07-12T08:51:10;4.60;;;4.40;;
10191;SDS011;17580;50.850;4.504;2022-07-12T08:53:38;5.53;;;5.03;;
10191;SDS011;17580;50.850;4.504;2022-07-12T08:56:06;4.40;;;4.10;;
10191;SDS011;17580;50.850;4.504;2022-07-12T08:58:33;5.03;;;4.57;;
10191;SDS011;17580;50.850;4.504;2022-07-12T09:01:00;4.73;;;4.43;;
10191;SDS011;17580;50.850;4.504;2022-07-12T09:03:29;4.70;;;4.40;;
10191;SDS011;17580;50.850;4.504;2022-07-12T09:05:56;4.70;;;4.40;;
10191;SDS011;17580;50.850;4.504;2022-07-12T09:08:25;4.73;;;4.40;;
10191;SDS011;17580;50.850;4.504;2022-07-12T09:10:57;4.50;;;4.20;;
10191;SDS011;17580;50.850;4.504;2022-07-12T09:16:19;5.20;;;4.80;;
10191;SDS011;17580;50.850;4.504;2022-07-12T09:18:48;3.97;;;3.67;;
10191;SDS011;17580;50.850;4.504;2022-07-12T09:21:24;3.87;;;3.67;;
10191;SDS011;17580;50.850;4.504;2022-07-12T09:23:53;3.87;;;3.67;;
10191;SDS011;17580;50.850;4.504;2022-07-12T09:26:21;4.13;;;3.93;;
10191;SDS011;17580;50.850;4.504;2022-07-12T09:28:49;4.30;;;3.90;;
10191;SDS011;17580;50.850;4.504;2022-07-12T09:31:17;3.80;;;3.60;;
10191;SDS011;17580;50.850;4.504;2022-07-12T09:36:41;3.60;;;3.30;;
10191;SDS011;17580;50.850;4.504;2022-07-12T09:39:08;3.80;;;3.60;;
10191;SDS011;17580;50.850;4.504;2022-07-12T09:41:35;4.00;;;3.80;;
10191;SDS011;17580;50.850;4.504;2022-07-12T09:44:02;3.80;;;3.60;;
10191;SDS011;17580;50.850;4.504;2022-07-12T09:46:30;3.70;;;3.53;;
10191;SDS011;17580;50.850;4.504;2022-07-12T09:48:58;3.63;;;3.40;;
10191;SDS011;17580;50.850;4.504;2022-07-12T09:51:26;3.58;;;3.38;;
10191;SDS011;17580;50.850;4.504;2022-07-12T09:53:57;3.90;;;3.63;;
10191;SDS011;17580;50.850;4.504;2022-07-12T09:56:28;3.72;;;3.53;;
10191;SDS011;17580;50.850;4.504;2022-07-12T09:58:58;3.38;;;3.20;;
10191;SDS011;17580;50.850;4.504;2022-07-12T10:01:30;3.78;;;3.58;;
10191;SDS011;17580;50.850;4.504;2022-07-12T10:03:58;4.05;;;3.85;;
10191;SDS011;17580;50.850;4.504;2022-07-12T10:06:27;3.60;;;3.40;;
10191;SDS011;17580;50.850;4.504;2022-07-12T10:08:55;3.30;;;3.20;;
10191;SDS011;17580;50.850;4.504;2022-07-12T10:11:24;3.90;;;3.63;;
10191;SDS011;17580;50.850;4.504;2022-07-12T10:13:52;4.03;;;3.80;;
10191;SDS011;17580;50.850;4.504;2022-07-12T10:16:24;3.55;;;3.35;;
10191;SDS011;17580;50.850;4.504;2022-07-12T10:21:49;3.58;;;3.33;;
10191;SDS011;17580;50.850;4.504;2022-07-12T10:27:33;3.10;;;2.90;;
10191;SDS011;17580;50.850;4.504;2022-07-12T10:30:17;3.45;;;3.25;;
10191;SDS011;17580;50.850;4.504;2022-07-12T10:32:49;3.47;;;3.17;;
10191;SDS011;17580;50.850;4.504;2022-07-12T10:35:19;2.97;;;2.88;;
10191;SDS011;17580;50.850;4.504;2022-07-12T10:40:44;3.47;;;3.28;;
10191;SDS011;17580;50.850;4.504;2022-07-12T10:43:17;3.70;;;3.50;;
10191;SDS011;17580;50.850;4.504;2022-07-12T10:45:46;3.50;;;3.30;;
10191;SDS011;17580;50.850;4.504;2022-07-12T10:48:21;3.50;;;3.40;;
10191;SDS011;17580;50.850;4.504;2022-07-12T10:50:52;3.53;;;3.33;;
10191;SDS011;17580;50.850;4.504;2022-07-12T10:53:21;4.25;;;3.47;;
10191;SDS011;17580;50.850;4.504;2022-07-12T10:56:11;3.92;;;3.70;;
10191;SDS011;17580;50.850;4.504;2022-07-12T10:58:43;3.08;;;2.88;;
10191;SDS011;17580;50.850;4.504;2022-07-12T11:01:12;2.90;;;2.80;;
10191;SDS011;17580;50.850;4.504;2022-07-12T11:03:41;3.50;;;3.20;;
10191;SDS011;17580;50.850;4.504;2022-07-12T11:06:10;3.80;;;3.50;;
10191;SDS011;17580;50.850;4.504;2022-07-12T11:08:51;4.63;;;3.45;;
10191;SDS011;17580;50.850;4.504;2022-07-12T11:11:20;3.33;;;3.13;;
10191;SDS011;17580;50.850;4.504;2022-07-12T11:13:49;3.40;;;3.20;;
10191;SDS011;17580;50.850;4.504;2022-07-12T11:16:17;3.45;;;3.20;;
10191;SDS011;17580;50.850;4.504;2022-07-12T11:18:44;3.22;;;3.00;;
10191;SDS011;17580;50.850;4.504;2022-07-12T11:21:11;3.33;;;3.13;;
10191;SDS011;17580;50.850;4.504;2022-07-12T11:23:39;8.85;;;3.88;;
10191;SDS011;17580;50.850;4.504;2022-07-12T11:26:10;3.70;;;3.50;;
10191;SDS011;17580;50.850;4.504;2022-07-12T11:28:39;3.60;;;3.40;;
10191;SDS011;17580;50.850;4.504;2022-07-12T11:31:08;3.67;;;3.47;;
10191;SDS011;17580;50.850;4.504;2022-07-12T11:33:37;3.60;;;3.40;;
10191;SDS011;17580;50.850;4.504;2022-07-12T11:36:06;4.10;;;3.80;;
10191;SDS011;17580;50.850;4.504;2022-07-12T11:38:34;3.55;;;3.35;;
10191;SDS011;17580;50.850;4.504;2022-07-12T11:41:02;3.60;;;3.40;;
10191;SDS011;17580;50.850;4.504;2022-07-12T11:43:31;3.28;;;3.08;;
10191;SDS011;17580;50.850;4.504;2022-07-12T11:45:59;3.88;;;3.53;;
10191;SDS011;17580;50.850;4.504;2022-07-12T11:48:28;3.17;;;2.97;;
10191;SDS011;17580;50.850;4.504;2022-07-12T11:50:59;3.15;;;2.88;;
10191;SDS011;17580;50.850;4.504;2022-07-12T11:53:27;4.40;;;3.10;;
10191;SDS011;17580;50.850;4.504;2022-07-12T11:55:55;2.80;;;2.70;;
10191;SDS011;17580;50.850;4.504;2022-07-12T11:58:24;3.30;;;2.97;;
10191;SDS011;17580;50.850;4.504;2022-07-12T12:00:52;2.90;;;2.80;;
10191;SDS011;17580;50.850;4.504;2022-07-12T12:03:20;2.92;;;2.83;;
10191;SDS011;17580;50.850;4.504;2022-07-12T12:05:50;2.90;;;2.80;;
10191;SDS011;17580;50.850;4.504;2022-07-12T12:08:19;2.92;;;2.72;;
10191;SDS011;17580;50.850;4.504;2022-07-12T12:10:53;3.38;;;3.08;;
10191;SDS011;17580;50.850;4.504;2022-07-12T12:13:21;2.60;;;2.50;;
10191;SDS011;17580;50.850;4.504;2022-07-12T12:15:50;3.10;;;2.90;;
10191;SDS011;17580;50.850;4.504;2022-07-12T12:18:27;2.90;;;2.70;;
10191;SDS011;17580;50.850;4.504;2022-07-12T12:20:58;3.33;;;3.15;;
10191;SDS011;17580;50.850;4.504;2022-07-12T12:23:26;2.83;;;2.70;;
10191;SDS011;17580;50.850;4.504;2022-07-12T12:26:07;2.40;;;2.30;;
10191;SDS011;17580;50.850;4.504;2022-07-12T12:28:42;2.53;;;2.42;;
10191;SDS011;17580;50.850;4.504;2022-07-12T12:31:10;3.25;;;2.70;;
10191;SDS011;17580;50.850;4.504;2022-07-12T12:33:38;2.80;;;2.70;;
10191;SDS011;17580;50.850;4.504;2022-07-12T12:36:12;3.17;;;2.97;;
10191;SDS011;17580;50.850;4.504;2022-07-12T12:38:40;3.33;;;3.13;;
10191;SDS011;17580;50.850;4.504;2022-07-12T12:41:08;3.40;;;3.10;;
10191;SDS011;17580;50.850;4.504;2022-07-12T12:43:36;2.88;;;2.72;;
10191;SDS011;17580;50.850;4.504;2022-07-12T12:46:03;2.42;;;2.25;;
10191;SDS011;17580;50.850;4.504;2022-07-12T12:48:31;2.58;;;2.50;;
10191;SDS011;17580;50.850;4.504;2022-07-12T12:51:02;4.90;;;2.65;;
10191;SDS011;17580;50.850;4.504;2022-07-12T12:53:32;3.22;;;3.00;;
10191;SDS011;17580;50.850;4.504;2022-07-12T12:56:04;3.28;;;3.08;;
10191;SDS011;17580;50.850;4.504;2022-07-12T12:58:33;2.83;;;2.72;;
10191;SDS011;17580;50.850;4.504;2022-07-12T13:01:00;3.28;;;3.17;;
10191;SDS011;17580;50.850;4.504;2022-07-12T13:03:27;3.10;;;2.90;;
10191;SDS011;17580;50.850;4.504;2022-07-12T13:05:54;3.00;;;2.80;;
10191;SDS011;17580;50.850;4.504;2022-07-12T13:08:22;2.97;;;2.85;;
10191;SDS011;17580;50.850;4.504;2022-07-12T13:10:51;2.90;;;2.80;;
10191;SDS011;17580;50.850;4.504;2022-07-12T13:13:32;2.65;;;2.55;;
10191;SDS011;17580;50.850;4.504;2022-07-12T13:15:59;3.17;;;2.97;;
10191;SDS011;17580;50.850;4.504;2022-07-12T13:18:26;3.13;;;2.83;;
10191;SDS011;17580;50.850;4.504;2022-07-12T13:20:53;3.30;;;3.10;;
10191;SDS011;17580;50.850;4.504;2022-07-12T13:23:20;2.78;;;2.60;;
10191;SDS011;17580;50.850;4.504;2022-07-12T13:25:46;2.90;;;2.80;;
10191;SDS011;17580;50.850;4.504;2022-07-12T13:28:15;2.97;;;2.83;;
10191;SDS011;17580;50.850;4.504;2022-07-12T13:30:42;2.97;;;2.78;;
10191;SDS011;17580;50.850;4.504;2022-07-12T13:33:09;2.55;;;2.45;;
10191;SDS011;17580;50.850;4.504;2022-07-12T13:35:36;2.92;;;2.80;;
10191;SDS011;17580;50.850;4.504;2022-07-12T13:38:03;3.13;;;2.92;;
10191;SDS011;17580;50.850;4.504;2022-07-12T13:40:30;2.63;;;2.53;;
10191;SDS011;17580;50.850;4.504;2022-07-12T13:42:56;2.88;;;2.70;;
10191;SDS011;17580;50.850;4.504;2022-07-12T13:45:25;3.25;;;2.97;;
10191;SDS011;17580;50.850;4.504;2022-07-12T13:47:52;3.28;;;2.90;;
10191;SDS011;17580;50.850;4.504;2022-07-12T13:50:20;2.45;;;2.35;;
10191;SDS011;17580;50.850;4.504;2022-07-12T13:52:48;2.63;;;2.42;;
10191;SDS011;17580;50.850;4.504;2022-07-12T13:55:15;2.88;;;2.67;;
10191;SDS011;17580;50.850;4.504;2022-07-12T13:57:43;2.25;;;2.15;;
10191;SDS011;17580;50.850;4.504;2022-07-12T14:00:13;2.47;;;2.38;;
10191;SDS011;17580;50.850;4.504;2022-07-12T14:02:42;2.40;;;2.30;;
10191;SDS011;17580;50.850;4.504;2022-07-12T14:05:11;2.40;;;2.30;;
10191;SDS011;17580;50.850;4.504;2022-07-12T14:07:39;2.63;;;2.53;;
10191;SDS011;17580;50.850;4.504;2022-07-12T14:10:07;2.35;;;2.25;;
10191;SDS011;17580;50.850;4.504;2022-07-12T14:12:35;2.78;;;2.67;;
10191;SDS011;17580;50.850;4.504;2022-07-12T14:15:03;3.13;;;2.92;;
10191;SDS011;17580;50.850;4.504;2022-07-12T14:17:45;2.47;;;2.28;;
10191;SDS011;17580;50.850;4.504;2022-07-12T14:20:16;2.37;;;2.20;;
10191;SDS011;17580;50.850;4.504;2022-07-12T14:22:43;2.80;;;2.60;;
10191;SDS011;17580;50.850;4.504;2022-07-12T14:25:11;2.88;;;2.75;;
10191;SDS011;17580;50.850;4.504;2022-07-12T14:27:38;2.92;;;2.80;;
10191;SDS011;17580;50.850;4.504;2022-07-12T14:30:06;3.30;;;3.10;;
10191;SDS011;17580;50.850;4.504;2022-07-12T14:32:34;2.60;;;2.50;;
10191;SDS011;17580;50.850;4.504;2022-07-12T14:35:04;2.42;;;2.33;;
10191;SDS011;17580;50.850;4.504;2022-07-12T14:37:31;3.37;;;3.17;;
10191;SDS011;17580;50.850;4.504;2022-07-12T14:39:59;6.90;;;3.40;;
10191;SDS011;17580;50.850;4.504;2022-07-12T14:42:25;2.30;;;2.20;;
10191;SDS011;17580;50.850;4.504;2022-07-12T14:44:53;2.95;;;2.75;;
10191;SDS011;17580;50.850;4.504;2022-07-12T14:47:19;3.00;;;2.80;;
10191;SDS011;17580;50.850;4.504;2022-07-12T14:49:47;2.40;;;2.30;;
10191;SDS011;17580;50.850;4.504;2022-07-12T14:52:15;2.45;;;2.35;;
10191;SDS011;17580;50.850;4.504;2022-07-12T14:54:42;2.80;;;2.70;;
10191;SDS011;17580;50.850;4.504;2022-07-12T14:57:10;2.30;;;2.20;;
10191;SDS011;17580;50.850;4.504;2022-07-12T14:59:38;2.47;;;2.37;;
10191;SDS011;17580;50.850;4.504;2022-07-12T15:02:04;2.58;;;2.47;;
10191;SDS011;17580;50.850;4.504;2022-07-12T15:04:31;2.35;;;2.25;;
10191;SDS011;17580;50.850;4.504;2022-07-12T15:06:58;2.23;;;2.23;;
10191;SDS011;17580;50.850;4.504;2022-07-12T15:09:27;3.33;;;2.50;;